sensor_id;sensor_type;location;lat;lon;timestamp;temperature;humidity
65078;DHT22;51672;51.230;-2.322;2022-12-07T00:02:45;3.00;99.90
65078;DHT22;51672;51.230;-2.322;2022-12-07T00:06:27;2.90;99.90
65078;DHT22;51672;51.230;-2.322;2022-12-07T00:10:09;2.90;99.90
65078;DHT22;51672;51.230;-2.322;2022-12-07T00:13:56;2.80;99.90
65078;DHT22;51672;51.230;-2.322;2022-12-07T00:17:38;2.70;99.90
65078;DHT22;51672;51.230;-2.322;2022-12-07T00:21:22;2.70;99.90
65078;DHT22;51672;51.230;-2.322;2022-12-07T00:25:05;2.50;99.90
65078;DHT22;51672;51.230;-2.322;2022-12-07T00:28:51;2.40;99.90
65078;DHT22;51672;51.230;-2.322;2022-12-07T00:32:33;2.30;99.90
65078;DHT22;51672;51.230;-2.322;2022-12-07T00:36:17;2.30;99.90
65078;DHT22;51672;51.230;-2.322;2022-12-07T00:40:07;2.20;99.90
65078;DHT22;51672;51.230;-2.322;2022-12-07T00:43:50;2.10;99.90
65078;DHT22;51672;51.230;-2.322;2022-12-07T00:47:32;2.10;99.90
65078;DHT22;51672;51.230;-2.322;2022-12-07T00:51:15;2.00;99.90
65078;DHT22;51672;51.230;-2.322;2022-12-07T00:54:57;1.90;99.90
65078;DHT22;51672;51.230;-2.322;2022-12-07T00:58:40;1.90;99.90
65078;DHT22;51672;51.230;-2.322;2022-12-07T01:02:22;1.80;99.90
65078;DHT22;51672;51.230;-2.322;2022-12-07T01:06:05;1.80;99.90
65078;DHT22;51672;51.230;-2.322;2022-12-07T01:09:46;1.70;99.90
65078;DHT22;51672;51.230;-2.322;2022-12-07T01:13:29;1.60;99.90
65078;DHT22;51672;51.230;-2.322;2022-12-07T01:17:11;1.60;99.90
65078;DHT22;51672;51.230;-2.322;2022-12-07T01:21:04;1.60;99.90
65078;DHT22;51672;51.230;-2.322;2022-12-07T01:24:46;1.60;99.90
65078;DHT22;51672;51.230;-2.322;2022-12-07T01:28:29;1.50;99.90
65078;DHT22;51672;51.230;-2.322;2022-12-07T01:32:11;1.50;99.90
65078;DHT22;51672;51.230;-2.322;2022-12-07T01:35:52;1.50;99.90
65078;DHT22;51672;51.230;-2.322;2022-12-07T01:39:34;1.40;99.90
65078;DHT22;51672;51.230;-2.322;2022-12-07T01:43:17;1.40;99.90
65078;DHT22;51672;51.230;-2.322;2022-12-07T01:47:04;1.30;99.90
65078;DHT22;51672;51.230;-2.322;2022-12-07T01:50:48;1.30;99.90
65078;DHT22;51672;51.230;-2.322;2022-12-07T01:54:31;1.30;99.90
65078;DHT22;51672;51.230;-2.322;2022-12-07T01:58:14;1.20;99.90
65078;DHT22;51672;51.230;-2.322;2022-12-07T02:01:56;1.20;99.90
65078;DHT22;51672;51.230;-2.322;2022-12-07T02:05:40;1.10;99.90
65078;DHT22;51672;51.230;-2.322;2022-12-07T02:09:23;1.00;99.90
65078;DHT22;51672;51.230;-2.322;2022-12-07T02:13:32;1.00;99.90
65078;DHT22;51672;51.230;-2.322;2022-12-07T02:25:16;0.90;99.90
65078;DHT22;51672;51.230;-2.322;2022-12-07T02:32:51;0.80;99.90
65078;DHT22;51672;51.230;-2.322;2022-12-07T02:36:39;0.80;99.90
65078;DHT22;51672;51.230;-2.322;2022-12-07T02:40:40;0.90;99.90
65078;DHT22;51672;51.230;-2.322;2022-12-07T02:44:25;0.90;99.90
65078;DHT22;51672;51.230;-2.322;2022-12-07T02:48:11;0.90;99.90
65078;DHT22;51672;51.230;-2.322;2022-12-07T02:51:54;0.80;99.90
65078;DHT22;51672;51.230;-2.322;2022-12-07T02:55:41;0.80;99.90
65078;DHT22;51672;51.230;-2.322;2022-12-07T03:00:02;0.80;99.90
65078;DHT22;51672;51.230;-2.322;2022-12-07T03:03:50;0.70;99.90
65078;DHT22;51672;51.230;-2.322;2022-12-07T03:11:37;0.70;99.90
65078;DHT22;51672;51.230;-2.322;2022-12-07T03:19:17;0.80;99.90
65078;DHT22;51672;51.230;-2.322;2022-12-07T03:23:00;0.80;99.90
65078;DHT22;51672;51.230;-2.322;2022-12-07T03:26:51;0.90;99.90
65078;DHT22;51672;51.230;-2.322;2022-12-07T03:30:59;1.00;99.90
65078;DHT22;51672;51.230;-2.322;2022-12-07T03:34:49;1.10;99.90
65078;DHT22;51672;51.230;-2.322;2022-12-07T03:38:45;1.10;99.90
65078;DHT22;51672;51.230;-2.322;2022-12-07T03:42:30;1.30;99.90
65078;DHT22;51672;51.230;-2.322;2022-12-07T03:54:41;1.20;99.90
65078;DHT22;51672;51.230;-2.322;2022-12-07T03:58:26;1.10;99.90
65078;DHT22;51672;51.230;-2.322;2022-12-07T04:02:11;1.00;99.90
65078;DHT22;51672;51.230;-2.322;2022-12-07T04:05:54;0.90;99.90
65078;DHT22;51672;51.230;-2.322;2022-12-07T04:09:36;0.80;99.90
65078;DHT22;51672;51.230;-2.322;2022-12-07T04:13:18;0.70;99.90
65078;DHT22;51672;51.230;-2.322;2022-12-07T04:17:01;0.70;99.90
65078;DHT22;51672;51.230;-2.322;2022-12-07T04:20:42;0.60;99.90
65078;DHT22;51672;51.230;-2.322;2022-12-07T04:24:25;0.60;99.90
65078;DHT22;51672;51.230;-2.322;2022-12-07T04:28:07;0.50;99.90
65078;DHT22;51672;51.230;-2.322;2022-12-07T04:31:49;0.50;99.90
65078;DHT22;51672;51.230;-2.322;2022-12-07T04:35:31;0.40;99.90
65078;DHT22;51672;51.230;-2.322;2022-12-07T04:39:26;0.40;99.90
65078;DHT22;51672;51.230;-2.322;2022-12-07T04:43:08;0.30;99.90
65078;DHT22;51672;51.230;-2.322;2022-12-07T04:46:50;0.20;99.90
65078;DHT22;51672;51.230;-2.322;2022-12-07T04:50:33;0.20;99.90
65078;DHT22;51672;51.230;-2.322;2022-12-07T04:54:17;0.10;99.90
65078;DHT22;51672;51.230;-2.322;2022-12-07T04:57:59;0.10;99.90
65078;DHT22;51672;51.230;-2.322;2022-12-07T05:01:41;0.10;99.90
65078;DHT22;51672;51.230;-2.322;2022-12-07T05:05:23;0.00;99.90
65078;DHT22;51672;51.230;-2.322;2022-12-07T05:09:05;0.00;99.90
65078;DHT22;51672;51.230;-2.322;2022-12-07T05:12:47;-0.10;99.90
65078;DHT22;51672;51.230;-2.322;2022-12-07T05:16:29;-0.10;99.90
65078;DHT22;51672;51.230;-2.322;2022-12-07T05:20:12;-0.10;99.90
65078;DHT22;51672;51.230;-2.322;2022-12-07T05:23:54;-0.10;99.90
65078;DHT22;51672;51.230;-2.322;2022-12-07T05:27:36;-0.20;99.90
65078;DHT22;51672;51.230;-2.322;2022-12-07T05:31:18;-0.20;99.90
65078;DHT22;51672;51.230;-2.322;2022-12-07T05:35:00;-0.20;99.90
65078;DHT22;51672;51.230;-2.322;2022-12-07T05:38:42;-0.30;99.90
65078;DHT22;51672;51.230;-2.322;2022-12-07T05:42:24;-0.30;99.90
65078;DHT22;51672;51.230;-2.322;2022-12-07T05:46:06;-0.40;99.90
65078;DHT22;51672;51.230;-2.322;2022-12-07T05:49:48;-0.40;99.90
65078;DHT22;51672;51.230;-2.322;2022-12-07T05:53:30;-0.40;99.90
65078;DHT22;51672;51.230;-2.322;2022-12-07T05:57:12;-0.50;99.90
65078;DHT22;51672;51.230;-2.322;2022-12-07T06:00:55;-0.50;99.90
65078;DHT22;51672;51.230;-2.322;2022-12-07T06:04:39;-0.50;99.90
65078;DHT22;51672;51.230;-2.322;2022-12-07T06:08:21;-0.60;99.90
65078;DHT22;51672;51.230;-2.322;2022-12-07T06:12:04;-0.60;99.90
65078;DHT22;51672;51.230;-2.322;2022-12-07T06:16:05;-0.60;99.90
65078;DHT22;51672;51.230;-2.322;2022-12-07T06:19:48;-0.70;99.90
65078;DHT22;51672;51.230;-2.322;2022-12-07T06:23:29;-0.70;99.90
65078;DHT22;51672;51.230;-2.322;2022-12-07T06:27:12;-0.70;99.90
65078;DHT22;51672;51.230;-2.322;2022-12-07T06:31:01;-0.70;99.90
65078;DHT22;51672;51.230;-2.322;2022-12-07T06:34:43;-0.70;99.90
65078;DHT22;51672;51.230;-2.322;2022-12-07T06:38:25;-0.70;99.90
65078;DHT22;51672;51.230;-2.322;2022-12-07T06:42:07;-0.70;99.90
65078;DHT22;51672;51.230;-2.322;2022-12-07T06:45:49;-0.90;99.90
65078;DHT22;51672;51.230;-2.322;2022-12-07T06:49:31;-0.80;99.90
65078;DHT22;51672;51.230;-2.322;2022-12-07T06:53:13;-0.80;99.90
65078;DHT22;51672;51.230;-2.322;2022-12-07T06:56:55;-0.90;99.90
65078;DHT22;51672;51.230;-2.322;2022-12-07T07:00:37;-0.90;99.90
65078;DHT22;51672;51.230;-2.322;2022-12-07T07:04:19;-0.90;99.90
65078;DHT22;51672;51.230;-2.322;2022-12-07T07:08:02;-0.90;99.90
65078;DHT22;51672;51.230;-2.322;2022-12-07T07:12:04;-1.00;99.90
65078;DHT22;51672;51.230;-2.322;2022-12-07T07:15:46;-0.90;99.90
65078;DHT22;51672;51.230;-2.322;2022-12-07T07:19:28;-0.90;99.90
65078;DHT22;51672;51.230;-2.322;2022-12-07T07:23:10;-1.00;99.90
65078;DHT22;51672;51.230;-2.322;2022-12-07T07:26:52;-1.00;99.90
65078;DHT22;51672;51.230;-2.322;2022-12-07T07:30:34;-1.00;99.90
65078;DHT22;51672;51.230;-2.322;2022-12-07T07:34:16;-1.00;99.90
65078;DHT22;51672;51.230;-2.322;2022-12-07T07:37:59;-1.10;99.90
65078;DHT22;51672;51.230;-2.322;2022-12-07T07:41:40;-1.10;99.90
65078;DHT22;51672;51.230;-2.322;2022-12-07T07:45:23;-1.10;99.90
65078;DHT22;51672;51.230;-2.322;2022-12-07T07:49:05;-1.10;99.90
65078;DHT22;51672;51.230;-2.322;2022-12-07T07:52:47;-1.10;99.90
65078;DHT22;51672;51.230;-2.322;2022-12-07T07:56:29;-1.20;99.90
65078;DHT22;51672;51.230;-2.322;2022-12-07T08:00:13;-1.20;99.90
65078;DHT22;51672;51.230;-2.322;2022-12-07T08:03:56;-1.20;99.90
65078;DHT22;51672;51.230;-2.322;2022-12-07T08:07:38;-1.20;99.90
65078;DHT22;51672;51.230;-2.322;2022-12-07T08:11:20;-1.20;99.90
65078;DHT22;51672;51.230;-2.322;2022-12-07T08:15:02;-1.20;99.90
65078;DHT22;51672;51.230;-2.322;2022-12-07T08:18:52;-1.20;99.90
65078;DHT22;51672;51.230;-2.322;2022-12-07T08:22:34;-1.10;99.90
65078;DHT22;51672;51.230;-2.322;2022-12-07T08:26:17;-1.10;99.90
65078;DHT22;51672;51.230;-2.322;2022-12-07T08:33:50;-1.00;99.90
65078;DHT22;51672;51.230;-2.322;2022-12-07T08:37:35;-1.00;99.90
65078;DHT22;51672;51.230;-2.322;2022-12-07T08:41:24;-0.90;99.90
65078;DHT22;51672;51.230;-2.322;2022-12-07T08:45:10;-0.90;99.90
65078;DHT22;51672;51.230;-2.322;2022-12-07T08:52:58;-0.70;99.90
65078;DHT22;51672;51.230;-2.322;2022-12-07T08:56:46;-0.50;99.90
65078;DHT22;51672;51.230;-2.322;2022-12-07T09:00:33;-0.30;99.90
65078;DHT22;51672;51.230;-2.322;2022-12-07T09:04:15;0.00;99.90
65078;DHT22;51672;51.230;-2.322;2022-12-07T09:08:01;0.60;99.90
65078;DHT22;51672;51.230;-2.322;2022-12-07T09:15:33;2.10;99.90
65078;DHT22;51672;51.230;-2.322;2022-12-07T09:19:16;2.80;99.90
65078;DHT22;51672;51.230;-2.322;2022-12-07T09:26:48;4.10;99.90
65078;DHT22;51672;51.230;-2.322;2022-12-07T09:30:44;4.60;99.90
65078;DHT22;51672;51.230;-2.322;2022-12-07T09:35:03;5.10;99.90
65078;DHT22;51672;51.230;-2.322;2022-12-07T09:42:41;5.60;99.90
65078;DHT22;51672;51.230;-2.322;2022-12-07T09:46:46;4.80;99.90
65078;DHT22;51672;51.230;-2.322;2022-12-07T09:50:29;4.10;99.90
65078;DHT22;51672;51.230;-2.322;2022-12-07T09:54:16;3.50;99.90
65078;DHT22;51672;51.230;-2.322;2022-12-07T09:58:00;3.10;99.90
65078;DHT22;51672;51.230;-2.322;2022-12-07T10:01:44;2.70;99.90
65078;DHT22;51672;51.230;-2.322;2022-12-07T10:05:29;2.40;99.90
65078;DHT22;51672;51.230;-2.322;2022-12-07T10:09:20;2.20;99.90
65078;DHT22;51672;51.230;-2.322;2022-12-07T10:13:33;2.00;99.90
65078;DHT22;51672;51.230;-2.322;2022-12-07T10:26:53;1.80;99.90
65078;DHT22;51672;51.230;-2.322;2022-12-07T10:31:02;1.80;99.90
65078;DHT22;51672;51.230;-2.322;2022-12-07T10:34:46;1.90;99.90
65078;DHT22;51672;51.230;-2.322;2022-12-07T10:38:33;2.20;99.90
65078;DHT22;51672;51.230;-2.322;2022-12-07T11:04:10;2.80;99.90
65078;DHT22;51672;51.230;-2.322;2022-12-07T11:08:38;2.80;99.90
65078;DHT22;51672;51.230;-2.322;2022-12-07T11:33:04;3.00;99.90
65078;DHT22;51672;51.230;-2.322;2022-12-07T11:37:17;3.10;99.90
65078;DHT22;51672;51.230;-2.322;2022-12-07T11:41:13;3.10;99.90
65078;DHT22;51672;51.230;-2.322;2022-12-07T11:49:44;3.20;99.90
65078;DHT22;51672;51.230;-2.322;2022-12-07T12:02:16;3.40;99.90
65078;DHT22;51672;51.230;-2.322;2022-12-07T12:06:01;3.40;99.90
65078;DHT22;51672;51.230;-2.322;2022-12-07T12:10:02;3.50;99.90
65078;DHT22;51672;51.230;-2.322;2022-12-07T12:22:37;4.00;99.90
65078;DHT22;51672;51.230;-2.322;2022-12-07T12:27:01;4.20;99.90
65078;DHT22;51672;51.230;-2.322;2022-12-07T12:39:27;4.80;99.90
65078;DHT22;51672;51.230;-2.322;2022-12-07T12:47:42;5.10;99.90
65078;DHT22;51672;51.230;-2.322;2022-12-07T13:04:40;5.50;99.90
65078;DHT22;51672;51.230;-2.322;2022-12-07T13:08:44;5.50;99.90
65078;DHT22;51672;51.230;-2.322;2022-12-07T13:12:28;5.50;99.90
65078;DHT22;51672;51.230;-2.322;2022-12-07T13:51:34;6.00;99.90
65078;DHT22;51672;51.230;-2.322;2022-12-07T13:55:17;6.10;99.90
65078;DHT22;51672;51.230;-2.322;2022-12-07T14:10:40;6.20;99.90
65078;DHT22;51672;51.230;-2.322;2022-12-07T14:14:29;6.10;99.90
65078;DHT22;51672;51.230;-2.322;2022-12-07T14:26:23;6.10;99.90
65078;DHT22;51672;51.230;-2.322;2022-12-07T14:30:17;6.00;99.90
65078;DHT22;51672;51.230;-2.322;2022-12-07T14:33:59;5.90;99.90
65078;DHT22;51672;51.230;-2.322;2022-12-07T14:37:44;5.90;99.90
65078;DHT22;51672;51.230;-2.322;2022-12-07T14:41:27;5.80;99.90
65078;DHT22;51672;51.230;-2.322;2022-12-07T14:45:32;5.80;99.90
65078;DHT22;51672;51.230;-2.322;2022-12-07T14:49:21;5.70;99.90
65078;DHT22;51672;51.230;-2.322;2022-12-07T14:53:33;5.70;99.90
65078;DHT22;51672;51.230;-2.322;2022-12-07T14:57:39;5.70;99.90
65078;DHT22;51672;51.230;-2.322;2022-12-07T15:01:21;5.60;99.90
65078;DHT22;51672;51.230;-2.322;2022-12-07T15:05:06;5.50;99.90
65078;DHT22;51672;51.230;-2.322;2022-12-07T15:09:11;5.50;99.90
65078;DHT22;51672;51.230;-2.322;2022-12-07T15:13:02;5.40;99.90
65078;DHT22;51672;51.230;-2.322;2022-12-07T15:17:05;5.40;99.90
65078;DHT22;51672;51.230;-2.322;2022-12-07T15:20:52;5.30;99.90
65078;DHT22;51672;51.230;-2.322;2022-12-07T15:24:40;5.30;99.90
65078;DHT22;51672;51.230;-2.322;2022-12-07T15:28:23;5.20;99.90
65078;DHT22;51672;51.230;-2.322;2022-12-07T15:32:09;5.20;99.90
65078;DHT22;51672;51.230;-2.322;2022-12-07T15:39:37;5.10;99.90
65078;DHT22;51672;51.230;-2.322;2022-12-07T15:43:30;5.10;99.90
65078;DHT22;51672;51.230;-2.322;2022-12-07T15:47:56;5.00;99.90
65078;DHT22;51672;51.230;-2.322;2022-12-07T15:51:59;5.00;99.90
65078;DHT22;51672;51.230;-2.322;2022-12-07T15:55:47;4.90;99.90
65078;DHT22;51672;51.230;-2.322;2022-12-07T15:59:32;4.80;99.90
65078;DHT22;51672;51.230;-2.322;2022-12-07T16:03:14;4.70;99.90
65078;DHT22;51672;51.230;-2.322;2022-12-07T16:07:03;4.60;99.90
65078;DHT22;51672;51.230;-2.322;2022-12-07T16:14:34;4.50;99.90
65078;DHT22;51672;51.230;-2.322;2022-12-07T16:18:17;4.40;99.90
65078;DHT22;51672;51.230;-2.322;2022-12-07T16:21:59;4.40;99.90
65078;DHT22;51672;51.230;-2.322;2022-12-07T16:25:41;4.20;99.90
65078;DHT22;51672;51.230;-2.322;2022-12-07T16:29:23;4.10;99.90
65078;DHT22;51672;51.230;-2.322;2022-12-07T16:33:05;4.00;99.90
65078;DHT22;51672;51.230;-2.322;2022-12-07T16:36:47;3.90;99.90
65078;DHT22;51672;51.230;-2.322;2022-12-07T16:40:47;3.70;99.90
65078;DHT22;51672;51.230;-2.322;2022-12-07T16:44:29;3.60;99.90
65078;DHT22;51672;51.230;-2.322;2022-12-07T16:48:12;3.50;99.90
65078;DHT22;51672;51.230;-2.322;2022-12-07T16:51:54;3.30;99.90
65078;DHT22;51672;51.230;-2.322;2022-12-07T16:55:56;3.20;99.90
65078;DHT22;51672;51.230;-2.322;2022-12-07T16:59:38;3.10;99.90
65078;DHT22;51672;51.230;-2.322;2022-12-07T17:03:20;3.00;99.90
65078;DHT22;51672;51.230;-2.322;2022-12-07T17:07:02;2.90;99.90
65078;DHT22;51672;51.230;-2.322;2022-12-07T17:10:44;2.80;99.90
65078;DHT22;51672;51.230;-2.322;2022-12-07T17:14:26;2.70;99.90
65078;DHT22;51672;51.230;-2.322;2022-12-07T17:18:29;2.60;99.90
65078;DHT22;51672;51.230;-2.322;2022-12-07T17:22:11;2.50;99.90
65078;DHT22;51672;51.230;-2.322;2022-12-07T17:25:54;2.40;99.90
65078;DHT22;51672;51.230;-2.322;2022-12-07T17:29:36;2.40;99.90
65078;DHT22;51672;51.230;-2.322;2022-12-07T17:33:18;2.20;99.90
65078;DHT22;51672;51.230;-2.322;2022-12-07T17:37:01;2.20;99.90
65078;DHT22;51672;51.230;-2.322;2022-12-07T17:40:43;2.10;99.90
65078;DHT22;51672;51.230;-2.322;2022-12-07T17:44:27;2.00;99.90
65078;DHT22;51672;51.230;-2.322;2022-12-07T17:48:09;1.90;99.90
65078;DHT22;51672;51.230;-2.322;2022-12-07T17:51:51;1.70;99.90
65078;DHT22;51672;51.230;-2.322;2022-12-07T17:55:55;1.70;99.90
65078;DHT22;51672;51.230;-2.322;2022-12-07T17:59:57;1.50;99.90
65078;DHT22;51672;51.230;-2.322;2022-12-07T18:03:39;1.40;99.90
65078;DHT22;51672;51.230;-2.322;2022-12-07T18:07:21;1.30;99.90
65078;DHT22;51672;51.230;-2.322;2022-12-07T18:11:04;1.30;99.90
65078;DHT22;51672;51.230;-2.322;2022-12-07T18:14:46;1.20;99.90
65078;DHT22;51672;51.230;-2.322;2022-12-07T18:18:31;1.10;99.90
65078;DHT22;51672;51.230;-2.322;2022-12-07T18:22:13;1.00;99.90
65078;DHT22;51672;51.230;-2.322;2022-12-07T18:25:55;0.90;99.90
65078;DHT22;51672;51.230;-2.322;2022-12-07T18:29:37;0.80;99.90
65078;DHT22;51672;51.230;-2.322;2022-12-07T18:33:20;0.80;99.90
65078;DHT22;51672;51.230;-2.322;2022-12-07T18:37:02;0.70;99.90
65078;DHT22;51672;51.230;-2.322;2022-12-07T18:40:44;0.60;99.90
65078;DHT22;51672;51.230;-2.322;2022-12-07T18:44:27;0.60;99.90
65078;DHT22;51672;51.230;-2.322;2022-12-07T18:48:09;0.50;99.90
65078;DHT22;51672;51.230;-2.322;2022-12-07T18:51:51;0.40;99.90
65078;DHT22;51672;51.230;-2.322;2022-12-07T18:55:33;0.40;99.90
65078;DHT22;51672;51.230;-2.322;2022-12-07T18:59:15;0.30;99.90
65078;DHT22;51672;51.230;-2.322;2022-12-07T19:03:24;0.30;99.90
65078;DHT22;51672;51.230;-2.322;2022-12-07T19:07:13;0.20;99.90
65078;DHT22;51672;51.230;-2.322;2022-12-07T19:10:55;0.20;99.90
65078;DHT22;51672;51.230;-2.322;2022-12-07T19:15:05;0.10;99.90
65078;DHT22;51672;51.230;-2.322;2022-12-07T19:18:47;0.10;99.90
65078;DHT22;51672;51.230;-2.322;2022-12-07T19:22:32;0.00;99.90
65078;DHT22;51672;51.230;-2.322;2022-12-07T19:26:14;0.00;99.90
65078;DHT22;51672;51.230;-2.322;2022-12-07T19:29:57;0.00;99.90
65078;DHT22;51672;51.230;-2.322;2022-12-07T19:33:39;-0.10;99.90
65078;DHT22;51672;51.230;-2.322;2022-12-07T19:37:21;-0.10;99.90
65078;DHT22;51672;51.230;-2.322;2022-12-07T19:41:11;-0.20;99.90
65078;DHT22;51672;51.230;-2.322;2022-12-07T19:45:12;-0.30;99.90
65078;DHT22;51672;51.230;-2.322;2022-12-07T19:48:54;-0.30;99.90
65078;DHT22;51672;51.230;-2.322;2022-12-07T19:52:36;-0.30;99.90
65078;DHT22;51672;51.230;-2.322;2022-12-07T19:56:19;-0.30;99.90
65078;DHT22;51672;51.230;-2.322;2022-12-07T20:00:03;-0.40;99.90
65078;DHT22;51672;51.230;-2.322;2022-12-07T20:03:45;-0.40;99.90
65078;DHT22;51672;51.230;-2.322;2022-12-07T20:07:27;-0.40;99.90
65078;DHT22;51672;51.230;-2.322;2022-12-07T20:11:10;-0.50;99.90
65078;DHT22;51672;51.230;-2.322;2022-12-07T20:15:11;-0.50;99.90
65078;DHT22;51672;51.230;-2.322;2022-12-07T20:18:53;-0.50;99.90
65078;DHT22;51672;51.230;-2.322;2022-12-07T20:22:38;-0.60;99.90
65078;DHT22;51672;51.230;-2.322;2022-12-07T20:26:20;-0.60;99.90
65078;DHT22;51672;51.230;-2.322;2022-12-07T20:30:02;-0.60;99.90
65078;DHT22;51672;51.230;-2.322;2022-12-07T20:33:45;-0.70;99.90
65078;DHT22;51672;51.230;-2.322;2022-12-07T20:37:27;-0.70;99.90
65078;DHT22;51672;51.230;-2.322;2022-12-07T20:41:10;-0.70;99.90
65078;DHT22;51672;51.230;-2.322;2022-12-07T20:45:12;-0.80;99.90
65078;DHT22;51672;51.230;-2.322;2022-12-07T20:48:57;-0.80;99.90
65078;DHT22;51672;51.230;-2.322;2022-12-07T20:52:40;-0.80;99.90
65078;DHT22;51672;51.230;-2.322;2022-12-07T20:56:27;-0.90;99.90
65078;DHT22;51672;51.230;-2.322;2022-12-07T21:00:10;-0.90;99.90
65078;DHT22;51672;51.230;-2.322;2022-12-07T21:03:57;-0.90;99.90
65078;DHT22;51672;51.230;-2.322;2022-12-07T21:07:39;-1.00;99.90
65078;DHT22;51672;51.230;-2.322;2022-12-07T21:11:23;-1.00;99.90
65078;DHT22;51672;51.230;-2.322;2022-12-07T21:15:06;-1.00;99.90
65078;DHT22;51672;51.230;-2.322;2022-12-07T21:18:48;-1.00;99.90
65078;DHT22;51672;51.230;-2.322;2022-12-07T21:22:30;-1.10;99.90
65078;DHT22;51672;51.230;-2.322;2022-12-07T21:26:15;-1.10;99.90
65078;DHT22;51672;51.230;-2.322;2022-12-07T21:29:57;-1.10;99.90
65078;DHT22;51672;51.230;-2.322;2022-12-07T21:33:39;-1.10;99.90
65078;DHT22;51672;51.230;-2.322;2022-12-07T21:37:21;-1.20;99.90
65078;DHT22;51672;51.230;-2.322;2022-12-07T21:41:30;-1.20;99.90
65078;DHT22;51672;51.230;-2.322;2022-12-07T21:45:12;-1.30;99.90
65078;DHT22;51672;51.230;-2.322;2022-12-07T21:48:57;-1.30;99.90
65078;DHT22;51672;51.230;-2.322;2022-12-07T21:52:40;-1.30;99.90
65078;DHT22;51672;51.230;-2.322;2022-12-07T21:56:30;-1.30;99.90
65078;DHT22;51672;51.230;-2.322;2022-12-07T22:00:12;-1.30;99.90
65078;DHT22;51672;51.230;-2.322;2022-12-07T22:03:55;-1.30;99.90
65078;DHT22;51672;51.230;-2.322;2022-12-07T22:07:36;-1.40;99.90
65078;DHT22;51672;51.230;-2.322;2022-12-07T22:11:18;-1.40;99.90
65078;DHT22;51672;51.230;-2.322;2022-12-07T22:15:00;-1.40;99.90
65078;DHT22;51672;51.230;-2.322;2022-12-07T22:18:48;-1.40;99.90
65078;DHT22;51672;51.230;-2.322;2022-12-07T22:22:30;-1.40;99.90
65078;DHT22;51672;51.230;-2.322;2022-12-07T22:26:14;-1.40;99.90
65078;DHT22;51672;51.230;-2.322;2022-12-07T22:30:08;-1.40;99.90
65078;DHT22;51672;51.230;-2.322;2022-12-07T22:33:51;-1.50;99.90
65078;DHT22;51672;51.230;-2.322;2022-12-07T22:37:33;-1.50;99.90
65078;DHT22;51672;51.230;-2.322;2022-12-07T22:41:20;-1.50;99.90
65078;DHT22;51672;51.230;-2.322;2022-12-07T22:45:04;-1.50;99.90
65078;DHT22;51672;51.230;-2.322;2022-12-07T22:48:46;-1.60;99.90
65078;DHT22;51672;51.230;-2.322;2022-12-07T22:52:28;-1.60;99.90
65078;DHT22;51672;51.230;-2.322;2022-12-07T22:56:10;-1.60;99.90
65078;DHT22;51672;51.230;-2.322;2022-12-07T22:59:52;-1.60;99.90
65078;DHT22;51672;51.230;-2.322;2022-12-07T23:03:34;-1.70;99.90
65078;DHT22;51672;51.230;-2.322;2022-12-07T23:07:16;-1.70;99.90
65078;DHT22;51672;51.230;-2.322;2022-12-07T23:10:58;-1.70;99.90
65078;DHT22;51672;51.230;-2.322;2022-12-07T23:14:40;-1.80;99.90
65078;DHT22;51672;51.230;-2.322;2022-12-07T23:18:22;-1.80;99.90
65078;DHT22;51672;51.230;-2.322;2022-12-07T23:22:03;-1.80;99.90
65078;DHT22;51672;51.230;-2.322;2022-12-07T23:25:45;-1.80;99.90
65078;DHT22;51672;51.230;-2.322;2022-12-07T23:29:27;-1.80;99.90
65078;DHT22;51672;51.230;-2.322;2022-12-07T23:33:09;-1.90;99.90
65078;DHT22;51672;51.230;-2.322;2022-12-07T23:36:51;-1.90;99.90
65078;DHT22;51672;51.230;-2.322;2022-12-07T23:40:33;-1.90;99.90
65078;DHT22;51672;51.230;-2.322;2022-12-07T23:44:16;-2.00;99.90
65078;DHT22;51672;51.230;-2.322;2022-12-07T23:47:58;-1.90;99.90
65078;DHT22;51672;51.230;-2.322;2022-12-07T23:51:40;-2.00;99.90
65078;DHT22;51672;51.230;-2.322;2022-12-07T23:55:22;-2.00;99.90
65078;DHT22;51672;51.230;-2.322;2022-12-07T23:59:04;-2.00;99.90
